Private Wetterstation Nrnberg - Katzwang
Wetterdaten: August 2015
Datum Temp. A. Feuchte A. Luftdruck Regen Wind Richtung Taupunkt Windchill Windben
01.08.2015 17,7 C 72 % 1013 hPa 1,0 l/m 1,9 km/h NO 12,6 C 17,6 C 1,6 km/h
02.08.2015 21,9 C 59 % 1016 hPa 0,0 l/m 10,3 km/h N-NO 12,8 C 21,2 C 8,5 km/h
03.08.2015 25,3 C 54 % 1015 hPa 0,0 l/m 7,0 km/h NO 14,6 C 24,6 C 5,8 km/h
04.08.2015 24,6 C 58 % 1014 hPa 0,0 l/m 2,2 km/h W-NW 14,8 C 24,6 C 1,8 km/h
05.08.2015 25,3 C 53 % 1015 hPa 0,0 l/m 3,5 km/h N-NO 14,5 C 25,2 C 2,9 km/h
06.08.2015 28,9 C 47 % 1014 hPa 0,0 l/m 0,0 km/h W-NW 15,4 C 28,9 C 0,0 km/h
07.08.2015 29,7 C 44 % 1013 hPa 0,0 l/m 7,9 km/h NO 14,9 C 29,7 C 6,5 km/h
08.08.2015 28,9 C 47 % 1015 hPa 0,0 l/m 5,6 km/h N-NO 16,1 C 28,5 C 4,6 km/h
09.08.2015 28,8 C 55 % 1013 hPa 0,0 l/m 18,0 km/h N-NO 18,2 C 27,9 C 15,4 km/h
10.08.2015 28,2 C 55 % 1012 hPa 0,0 l/m 1,2 km/h W-NW 17,6 C 28,2 C 1,0 km/h
11.08.2015 27,3 C 56 % 1013 hPa 0,0 l/m 0,0 km/h W-NW 17,4 C 27,3 C 0,0 km/h
12.08.2015 27,9 C 53 % 1016 hPa 0,0 l/m 5,7 km/h W-NW 16,5 C 27,9 C 4,7 km/h
13.08.2015 29,6 C 48 % 1010 hPa 0,0 l/m 9,2 km/h O 16,5 C 29,6 C 7,6 km/h
14.08.2015 25,0 C 65 % 1008 hPa 1,6 l/m 2,8 km/h W-NW 17,4 C 25,0 C 2,3 km/h
15.08.2015 22,8 C 68 % 1008 hPa 5,2 l/m 5,1 km/h W-NW 16,3 C 22,6 C 4,2 km/h
16.08.2015 17,5 C 83 % 1009 hPa 5,7 l/m 0,0 km/h W-NW 14,5 C 17,5 C 0,0 km/h
17.08.2015 15,4 C 83 % 1010 hPa 5,7 l/m 0,0 km/h W-NW 12,4 C 15,4 C 0,0 km/h
18.08.2015 17,7 C 72 % 1013 hPa 0,0 l/m 9,2 km/h W-NW 12,3 C 16,7 C 8,9 km/h
19.08.2015 17,8 C 69 % 1017 hPa 0,0 l/m 7,9 km/h N-NO 11,8 C 17,1 C 6,5 km/h
20.08.2015 16,7 C 77 % 1021 hPa 0,0 l/m 3,2 km/h N 12,5 C 16,2 C 2,6 km/h
21.08.2015 18,7 C 66 % 1021 hPa 0,0 l/m 2,2 km/h N-NO 11,9 C 18,5 C 1,8 km/h
22.08.2015 19,4 C 56 % 1016 hPa 0,0 l/m 1,6 km/h O 9,6 C 19,4 C 1,3 km/h
23.08.2015 20,1 C 64 % 1008 hPa 0,5 l/m 5,9 km/h NO 12,4 C 19,6 C 4,9 km/h
24.08.2015 21,2 C 71 % 1007 hPa 3,1 l/m 10,1 km/h NO 15,2 C 19,5 C 8,4 km/h
25.08.2015 17,5 C 63 % 1016 hPa 0,0 l/m 5,1 km/h W-NW 10,2 C 16,8 C 4,2 km/h
26.08.2015 19,5 C 54 % 1014 hPa 0,0 l/m 6,3 km/h O-NO 8,9 C 18,9 C 5,2 km/h
27.08.2015 23,8 C 54 % 1010 hPa 0,0 l/m 16,0 km/h O-NO 13,3 C 22,2 C 15,9 km/h
28.08.2015 22,5 C 70 % 1017 hPa 0,0 l/m 5,9 km/h W-NW 16,7 C 21,9 C 4,9 km/h
29.08.2015 25,0 C 64 % 1019 hPa 0,0 l/m 0,0 km/h O-NO 17,2 C 25,0 C 0,0 km/h
30.08.2015 26,6 C 60 % 1015 hPa 0,0 l/m 5,7 km/h NO 17,3 C 26,6 C 4,7 km/h
31.08.2015 26,5 C 55 % 1010 hPa 0,0 l/m 3,2 km/h N 16,0 C 26,5 C 2,6 km/h
Min-Datum 26.08.15 07.08.15 24.08.15 7 Tage 01.08.15 - 26.08.15 26.08.15 01.08.15
Min-Zeit 06:20 15:10 14:40 - 00:20 - 06:20 06:20 00:20
Minimum 9,4 C 22 % 1004 hPa - 0,0 km/h - 6,1 C 4,9 C 0,0 km/h
Max-Datum 07.08.15 17.08.15 20.08.15 16.08.15 28.08.15 - 10.08.15 07.08.15 04.08.15
Max-Zeit 14:50 23:00 21:40 01:30 13:20 - 13:10 14:50 16:20
Maximum 40,2 C 85 % 1023 hPa 5,7 l/m 64,4 km/h
W-NW
- 20,6 C 40,2 C 113,7 km/h
W-NW
Durchschnitt 23,2 C 61 % 1013 hPa #22,8 l/m 5,3 km/h W-NW 14,5 C 22,8 C 4,5 km/h

Durchschnitt Minimum Temp.16,2 C
Durchschnitt Maximum Temp.30,6 C